createdAt,value
2022-08-03T00:00:26.423Z,27.35
2022-08-03T00:02:53.455Z,27.33
2022-08-03T00:05:20.117Z,27.33
2022-08-03T00:07:46.615Z,27.34
2022-08-03T00:10:15.232Z,27.34
2022-08-03T00:12:41.707Z,27.34
2022-08-03T00:15:11.393Z,27.34
2022-08-03T00:17:53.690Z,27.33
2022-08-03T00:20:24.731Z,27.34
2022-08-03T00:22:51.725Z,27.33
2022-08-03T00:25:18.428Z,27.31
2022-08-03T00:27:45.555Z,27.31
2022-08-03T00:30:14.861Z,27.33
2022-08-03T00:32:45.113Z,27.32
2022-08-03T00:35:18.269Z,27.32
2022-08-03T00:37:58.890Z,27.30
2022-08-03T00:40:25.696Z,27.32
2022-08-03T00:43:00.151Z,27.29
2022-08-03T00:45:30.248Z,27.28
2022-08-03T00:47:57.213Z,27.27
2022-08-03T00:50:25.898Z,27.28
2022-08-03T00:52:54.236Z,27.28
2022-08-03T00:55:21.161Z,27.27
2022-08-03T00:57:48.261Z,27.28
2022-08-03T01:00:17.943Z,27.27
2022-08-03T01:02:44.542Z,27.26
2022-08-03T01:05:11.355Z,27.26
2022-08-03T01:08:08.253Z,27.26
2022-08-03T01:10:47.069Z,27.26
2022-08-03T01:14:01.103Z,27.25
2022-08-03T01:16:17.984Z,27.25
2022-08-03T01:18:57.042Z,27.24
2022-08-03T01:21:33.007Z,27.24
2022-08-03T01:23:59.759Z,27.27
2022-08-03T01:26:32.007Z,27.24
2022-08-03T01:29:01.545Z,27.25
2022-08-03T01:31:34.748Z,27.23
2022-08-03T01:34:23.564Z,27.24
2022-08-03T01:36:53.806Z,27.23
2022-08-03T01:39:22.108Z,27.22
2022-08-03T01:41:53.737Z,27.23
2022-08-03T01:44:29.478Z,27.24
2022-08-03T01:46:59.494Z,27.23
2022-08-03T01:49:27.473Z,27.25
2022-08-03T01:51:58.682Z,27.22
2022-08-03T01:54:35.683Z,27.24
2022-08-03T01:57:03.528Z,27.21
2022-08-03T01:59:32.397Z,27.22
2022-08-03T02:02:27.704Z,27.22
2022-08-03T02:04:48.960Z,27.22
2022-08-03T02:07:16.450Z,27.20
2022-08-03T02:09:46.989Z,27.20
2022-08-03T02:12:15.269Z,27.18
2022-08-03T02:14:44.384Z,27.18
2022-08-03T02:17:12.549Z,27.20
2022-08-03T02:19:40.666Z,27.19
2022-08-03T02:22:11.690Z,27.18
2022-08-03T02:24:38.652Z,27.19
2022-08-03T02:27:12.230Z,27.19
2022-08-03T02:29:40.986Z,27.20
2022-08-03T02:32:12.699Z,27.18
2022-08-03T02:34:40.763Z,27.19
2022-08-03T02:37:10.235Z,27.18
2022-08-03T02:39:38.044Z,27.17
2022-08-03T02:42:06.452Z,27.17
2022-08-03T02:44:34.172Z,27.19
2022-08-03T02:47:07.894Z,27.17
2022-08-03T02:49:42.725Z,27.17
2022-08-03T02:52:20.684Z,27.16
2022-08-03T02:54:51.137Z,27.16
2022-08-03T02:57:19.445Z,27.15
2022-08-03T02:59:47.063Z,27.15
2022-08-03T03:02:15.817Z,27.14
2022-08-03T03:05:51.432Z,27.16
2022-08-03T03:07:31.290Z,27.13
2022-08-03T03:10:08.228Z,27.13
2022-08-03T03:12:37.073Z,27.13
2022-08-03T03:15:05.543Z,27.12
2022-08-03T03:17:33.758Z,27.11
2022-08-03T03:20:01.086Z,27.12
2022-08-03T03:22:28.569Z,27.11
2022-08-03T03:24:55.923Z,27.11
2022-08-03T03:27:23.100Z,27.11
2022-08-03T03:29:49.988Z,27.10
2022-08-03T03:32:17.264Z,27.11
2022-08-03T03:34:44.738Z,27.11
2022-08-03T03:37:11.287Z,27.10
2022-08-03T03:39:37.835Z,27.10
2022-08-03T03:42:05.211Z,27.11
2022-08-03T03:44:31.858Z,27.10
2022-08-03T03:46:58.638Z,27.11
2022-08-03T03:49:25.780Z,27.11
2022-08-03T03:51:53.970Z,27.11
2022-08-03T03:54:21.178Z,27.09
2022-08-03T03:56:48.025Z,27.07
2022-08-03T03:59:14.719Z,27.08
2022-08-03T04:01:41.361Z,27.07
2022-08-03T04:04:26.226Z,27.06
2022-08-03T04:07:11.173Z,27.07
2022-08-03T04:09:59.194Z,27.07
2022-08-03T04:12:49.884Z,27.05
2022-08-03T04:15:20.950Z,27.07
2022-08-03T04:17:50.291Z,27.07
2022-08-03T04:20:21.366Z,27.06
2022-08-03T04:22:51.313Z,27.05
2022-08-03T04:25:20.826Z,27.05
2022-08-03T04:28:29.654Z,27.05
2022-08-03T04:30:38.731Z,27.04
2022-08-03T04:33:06.319Z,27.05
2022-08-03T04:36:01.105Z,27.06
2022-08-03T04:38:23.572Z,27.04
2022-08-03T04:40:50.833Z,27.04
2022-08-03T04:43:19.347Z,27.03
2022-08-03T04:45:48.189Z,27.04
2022-08-03T04:48:15.659Z,27.04
2022-08-03T04:50:43.051Z,27.05
2022-08-03T04:53:09.661Z,27.02
2022-08-03T04:55:36.560Z,27.04
2022-08-03T04:58:04.048Z,27.05
2022-08-03T05:00:30.773Z,27.04
2022-08-03T05:02:57.512Z,27.04
2022-08-03T05:05:24.341Z,27.04
2022-08-03T05:07:51.042Z,27.03
2022-08-03T05:10:18.119Z,27.04
2022-08-03T05:12:48.489Z,27.05
2022-08-03T05:15:15.228Z,27.05
2022-08-03T05:17:41.777Z,27.09
2022-08-03T05:20:09.073Z,27.18
2022-08-03T05:22:35.533Z,27.22
2022-08-03T05:25:02.555Z,27.26
2022-08-03T05:27:29.334Z,27.30
2022-08-03T05:29:55.883Z,27.32
2022-08-03T05:32:42.388Z,27.38
2022-08-03T05:36:01.034Z,27.40
2022-08-03T05:37:55.893Z,27.45
2022-08-03T05:40:22.621Z,27.49
2022-08-03T05:42:49.833Z,27.51
2022-08-03T05:45:18.464Z,27.54
2022-08-03T05:47:46.058Z,27.63
2022-08-03T05:50:14.169Z,27.69
2022-08-03T05:52:41.463Z,27.75
2022-08-03T05:55:08.711Z,27.80
2022-08-03T05:57:35.591Z,27.85
2022-08-03T06:00:07.157Z,27.85
2022-08-03T06:02:34.248Z,27.94
2022-08-03T06:05:00.754Z,27.99
2022-08-03T06:07:27.877Z,28.00
2022-08-03T06:10:35.061Z,28.03
2022-08-03T06:12:49.697Z,28.07
2022-08-03T06:15:20.360Z,28.10
2022-08-03T06:17:49.036Z,28.10
2022-08-03T06:20:22.153Z,28.11
2022-08-03T06:23:00.295Z,28.20
2022-08-03T06:25:27.833Z,28.23
2022-08-03T06:27:54.392Z,28.25
2022-08-03T06:30:21.529Z,28.19
2022-08-03T06:32:51.939Z,28.25
2022-08-03T06:35:19.307Z,28.27
2022-08-03T06:37:47.816Z,28.25
2022-08-03T06:40:24.305Z,28.25
2022-08-03T06:42:51.262Z,28.22
2022-08-03T06:45:17.899Z,28.25
2022-08-03T06:47:44.493Z,28.24
2022-08-03T06:50:12.720Z,28.25
2022-08-03T06:52:43.140Z,28.26
2022-08-03T06:55:09.821Z,28.27
2022-08-03T06:57:36.393Z,28.29
2022-08-03T07:00:06.155Z,28.28
2022-08-03T07:02:40.077Z,28.25
2022-08-03T07:05:08.180Z,28.26
2022-08-03T07:07:34.802Z,28.29
2022-08-03T07:10:02.195Z,28.29
2022-08-03T07:12:30.197Z,28.32
2022-08-03T07:15:01.371Z,28.34
2022-08-03T07:17:30.190Z,28.33
2022-08-03T07:19:57.058Z,28.35
2022-08-03T07:22:23.746Z,28.32
2022-08-03T07:24:50.290Z,28.28
2022-08-03T07:27:17.015Z,28.30
2022-08-03T07:29:43.491Z,28.31
2022-08-03T07:32:10.022Z,28.35
2022-08-03T07:34:36.620Z,28.36
2022-08-03T07:37:03.159Z,28.36
2022-08-03T07:39:29.711Z,28.39
2022-08-03T07:41:56.185Z,28.44
2022-08-03T07:44:23.030Z,28.51
2022-08-03T07:46:50.794Z,28.56
2022-08-03T07:49:18.658Z,28.60
2022-08-03T07:51:45.243Z,28.66
2022-08-03T07:56:39.454Z,28.78
2022-08-03T07:59:05.904Z,28.81
2022-08-03T08:01:35.882Z,28.83
2022-08-03T08:04:02.483Z,28.88
2022-08-03T08:06:29.004Z,28.90
2022-08-03T08:08:59.419Z,28.94
2022-08-03T08:11:25.881Z,28.96
2022-08-03T08:13:52.340Z,28.99
2022-08-03T08:16:18.825Z,29.00
2022-08-03T08:18:45.275Z,28.98
2022-08-03T08:21:11.723Z,29.00
2022-08-03T08:23:43.539Z,29.01
2022-08-03T08:26:11.951Z,29.05
2022-08-03T08:28:38.950Z,29.05
2022-08-03T08:31:05.465Z,29.05
2022-08-03T08:33:48.296Z,29.04
2022-08-03T08:36:19.231Z,29.03
2022-08-03T08:38:45.850Z,29.02
2022-08-03T08:41:13.915Z,29.01
2022-08-03T08:43:41.612Z,28.99
2022-08-03T08:46:12.380Z,29.01
2022-08-03T08:48:41.996Z,28.94
2022-08-03T08:51:10.636Z,28.89
2022-08-03T08:53:38.332Z,28.83
2022-08-03T08:56:06.178Z,28.80
2022-08-03T08:58:38.601Z,28.79
2022-08-03T09:01:05.690Z,28.77
2022-08-03T09:03:34.472Z,28.77
2022-08-03T09:06:02.349Z,28.80
2022-08-03T09:08:30.679Z,28.79
2022-08-03T09:10:57.579Z,28.83
2022-08-03T09:13:24.401Z,28.81
2022-08-03T09:16:15.640Z,28.88
2022-08-03T09:18:44.720Z,28.88
2022-08-03T09:21:34.190Z,28.92
2022-08-03T09:24:05.255Z,28.94
2022-08-03T09:26:35.514Z,28.96
2022-08-03T09:29:13.255Z,28.95
2022-08-03T09:31:44.667Z,28.99
2022-08-03T09:34:17.276Z,29.01
2022-08-03T09:36:46.629Z,29.04
2022-08-03T09:39:14.447Z,29.04
2022-08-03T09:41:43.901Z,29.05
2022-08-03T09:44:24.306Z,29.08
2022-08-03T09:46:56.675Z,29.11
2022-08-03T09:49:24.720Z,29.13
2022-08-03T09:52:32.259Z,29.16
2022-08-03T09:54:39.333Z,29.09
2022-08-03T09:57:05.855Z,29.08
2022-08-03T09:59:33.971Z,29.14
2022-08-03T10:02:01.914Z,29.18
2022-08-03T10:04:28.901Z,29.21
2022-08-03T10:07:09.838Z,29.23
2022-08-03T10:09:37.790Z,29.28
2022-08-03T10:12:13.210Z,29.31
2022-08-03T10:14:42.281Z,29.35
2022-08-03T10:17:11.887Z,29.38
2022-08-03T10:19:38.392Z,29.42
2022-08-03T10:22:10.485Z,29.47
2022-08-03T10:24:39.738Z,29.49
2022-08-03T10:27:08.061Z,29.53
2022-08-03T10:29:38.944Z,29.59
2022-08-03T10:32:14.573Z,29.61
2022-08-03T10:34:44.407Z,29.66
2022-08-03T10:37:13.815Z,29.69
2022-08-03T10:39:53.542Z,29.73
2022-08-03T10:42:28.273Z,29.78
2022-08-03T10:45:18.133Z,29.81
2022-08-03T10:47:46.526Z,29.84
2022-08-03T10:50:13.373Z,29.85
2022-08-03T10:53:01.971Z,29.89
2022-08-03T10:55:53.409Z,29.93
2022-08-03T10:58:57.545Z,29.96
2022-08-03T11:01:55.071Z,30.00
2022-08-03T11:04:26.586Z,30.03
2022-08-03T11:07:25.009Z,30.05
2022-08-03T11:09:56.040Z,30.08
2022-08-03T11:12:28.415Z,30.06
2022-08-03T11:15:04.359Z,30.05
2022-08-03T11:17:33.044Z,30.02
2022-08-03T11:19:59.688Z,30.01
2022-08-03T11:22:46.193Z,30.05
2022-08-03T11:25:54.115Z,30.10
2022-08-03T11:28:38.956Z,30.14
2022-08-03T11:31:47.181Z,30.15
2022-08-03T11:34:11.610Z,30.19
2022-08-03T11:37:15.473Z,30.23
2022-08-03T11:39:46.952Z,30.19
2022-08-03T11:42:22.497Z,30.17
2022-08-03T11:44:53.988Z,30.17
2022-08-03T11:47:21.949Z,30.15
2022-08-03T11:49:50.494Z,30.14
2022-08-03T11:52:19.445Z,30.14
2022-08-03T11:54:56.934Z,30.16
2022-08-03T11:58:58.395Z,30.15
2022-08-03T12:00:24.115Z,30.15
2022-08-03T12:02:56.111Z,30.14
2022-08-03T12:05:36.272Z,30.15
2022-08-03T12:08:06.603Z,30.17
2022-08-03T12:10:34.378Z,30.18
2022-08-03T12:13:02.549Z,30.21
2022-08-03T12:15:32.351Z,30.23
2022-08-03T12:17:58.878Z,30.26
2022-08-03T12:20:34.467Z,30.26
2022-08-03T12:23:04.849Z,30.32
2022-08-03T12:25:39.423Z,30.27
2022-08-03T12:28:37.459Z,30.29
2022-08-03T12:31:09.448Z,30.33
2022-08-03T12:33:55.804Z,30.37
2022-08-03T12:36:22.581Z,30.41
2022-08-03T12:38:56.976Z,30.42
2022-08-03T12:41:35.405Z,30.47
2022-08-03T12:44:04.010Z,30.50
2022-08-03T12:46:34.755Z,30.54
2022-08-03T12:49:09.579Z,30.57
2022-08-03T12:52:04.100Z,30.58
2022-08-03T12:54:35.895Z,30.61
2022-08-03T12:57:15.834Z,30.63
2022-08-03T12:59:53.483Z,30.58
2022-08-03T13:02:27.286Z,30.54
2022-08-03T13:04:55.098Z,30.54
2022-08-03T13:07:22.762Z,30.53
2022-08-03T13:09:54.524Z,30.55
2022-08-03T13:12:25.469Z,30.54
2022-08-03T13:14:55.191Z,30.55
2022-08-03T13:17:22.083Z,30.57
2022-08-03T13:19:49.531Z,30.60
2022-08-03T13:22:18.841Z,30.61
2022-08-03T13:24:47.364Z,30.64
2022-08-03T13:28:01.011Z,30.64
2022-08-03T13:30:00.960Z,30.66
2022-08-03T13:32:27.482Z,30.69
2022-08-03T13:34:54.008Z,30.71
2022-08-03T13:37:20.762Z,30.73
2022-08-03T13:39:57.994Z,30.73
2022-08-03T13:42:31.976Z,30.77
2022-08-03T13:44:59.287Z,30.78
2022-08-03T13:47:26.344Z,30.82
2022-08-03T13:49:59.758Z,30.83
2022-08-03T13:52:27.583Z,30.85
2022-08-03T13:54:54.078Z,30.84
2022-08-03T13:58:02.350Z,30.86
2022-08-03T14:00:08.065Z,30.87
2022-08-03T14:02:34.673Z,30.86
2022-08-03T14:05:01.275Z,30.87
2022-08-03T14:07:27.748Z,30.86
2022-08-03T14:09:54.197Z,30.84
2022-08-03T14:12:20.685Z,30.80
2022-08-03T14:14:47.241Z,30.78
2022-08-03T14:17:13.700Z,30.78
2022-08-03T14:19:53.079Z,30.77
2022-08-03T14:22:21.437Z,30.75
2022-08-03T14:24:49.348Z,30.74
2022-08-03T14:27:16.407Z,30.72
2022-08-03T14:29:43.059Z,30.71
2022-08-03T14:32:13.094Z,30.70
2022-08-03T14:34:40.461Z,30.69
2022-08-03T14:37:07.036Z,30.68
2022-08-03T14:42:20.455Z,30.65
2022-08-03T14:44:47.496Z,30.64
2022-08-03T14:47:14.422Z,30.61
2022-08-03T14:50:38.785Z,30.63
2022-08-03T14:52:27.701Z,30.60
2022-08-03T14:54:54.143Z,30.58
2022-08-03T14:57:20.902Z,30.56
2022-08-03T14:59:56.752Z,30.56
2022-08-03T15:02:25.050Z,30.55
2022-08-03T15:04:52.551Z,30.54
2022-08-03T15:07:20.435Z,30.53
2022-08-03T15:09:47.311Z,30.53
2022-08-03T15:12:13.875Z,30.50
2022-08-03T15:14:40.446Z,30.50
2022-08-03T15:17:07.164Z,30.49
2022-08-03T15:20:01.029Z,30.48
2022-08-03T15:22:20.603Z,30.45
2022-08-03T15:24:51.317Z,30.46
2022-08-03T15:27:17.941Z,30.44
2022-08-03T15:30:09.386Z,30.40
2022-08-03T15:32:31.028Z,30.37
2022-08-03T15:34:57.674Z,30.36
2022-08-03T15:37:25.772Z,30.34
2022-08-03T15:39:59.218Z,30.33
2022-08-03T15:42:28.588Z,30.32
2022-08-03T15:44:55.080Z,30.29
2022-08-03T15:47:22.075Z,30.29
2022-08-03T15:49:48.903Z,30.27
2022-08-03T15:52:15.449Z,30.26
2022-08-03T15:54:41.938Z,30.24
2022-08-03T15:57:08.551Z,30.23
2022-08-03T15:59:35.094Z,30.21
2022-08-03T16:02:01.663Z,30.20
2022-08-03T16:04:28.148Z,30.19
2022-08-03T16:06:54.666Z,30.17
2022-08-03T16:09:23.459Z,30.18
2022-08-03T16:12:14.437Z,30.15
2022-08-03T16:14:51.774Z,30.14
2022-08-03T16:17:18.874Z,30.13
2022-08-03T16:19:45.479Z,30.12
2022-08-03T16:22:11.961Z,30.12
2022-08-03T16:24:40.973Z,30.10
2022-08-03T16:27:07.812Z,30.08
2022-08-03T16:29:44.180Z,30.08
2022-08-03T16:32:11.100Z,30.07
2022-08-03T16:34:38.574Z,30.05
2022-08-03T16:37:22.427Z,30.02
2022-08-03T16:39:52.706Z,30.02
2022-08-03T16:42:19.253Z,29.99
2022-08-03T16:44:45.741Z,29.99
2022-08-03T16:47:22.138Z,29.97
2022-08-03T16:49:54.747Z,29.96
2022-08-03T16:52:23.135Z,29.95
2022-08-03T16:54:50.682Z,29.95
2022-08-03T16:57:55.855Z,29.93
2022-08-03T17:00:09.780Z,29.91
2022-08-03T17:02:36.737Z,29.91
2022-08-03T17:05:04.713Z,29.90
2022-08-03T17:07:31.212Z,29.89
2022-08-03T17:09:58.105Z,29.88
2022-08-03T17:12:27.065Z,29.87
2022-08-03T17:14:54.431Z,29.86
2022-08-03T17:17:29.899Z,29.86
2022-08-03T17:20:10.274Z,29.84
2022-08-03T17:22:44.655Z,29.85
2022-08-03T17:25:11.597Z,29.82
2022-08-03T17:28:51.023Z,29.81
2022-08-03T17:30:57.024Z,29.79
2022-08-03T17:33:27.789Z,29.80
2022-08-03T17:36:02.179Z,29.79
2022-08-03T17:38:28.969Z,29.77
2022-08-03T17:41:01.653Z,29.77
2022-08-03T17:44:14.508Z,29.74
2022-08-03T17:46:26.710Z,29.73
2022-08-03T17:48:54.128Z,29.74
2022-08-03T17:51:46.358Z,29.72
2022-08-03T17:54:23.292Z,29.71
2022-08-03T17:57:22.439Z,29.70
2022-08-03T18:00:25.713Z,29.69
2022-08-03T18:03:18.378Z,29.69
2022-08-03T18:06:11.747Z,29.68
2022-08-03T18:08:54.589Z,29.67
2022-08-03T18:11:24.122Z,29.65
2022-08-03T18:14:16.081Z,29.65
2022-08-03T18:16:57.768Z,29.65
2022-08-03T18:20:03.530Z,29.62
2022-08-03T18:22:14.164Z,29.63
2022-08-03T18:24:42.277Z,29.61
2022-08-03T18:27:10.767Z,29.60
2022-08-03T18:29:37.897Z,29.60
2022-08-03T18:32:13.306Z,29.58
2022-08-03T18:34:53.390Z,29.59
2022-08-03T18:37:25.340Z,29.57
2022-08-03T18:39:55.483Z,29.56
2022-08-03T18:42:25.758Z,29.56
2022-08-03T18:45:56.173Z,29.55
2022-08-03T18:48:04.979Z,29.55
2022-08-03T18:50:48.266Z,29.54
2022-08-03T18:53:21.415Z,29.53
2022-08-03T18:56:11.128Z,29.51
2022-08-03T18:58:52.198Z,29.51
2022-08-03T19:02:00.707Z,29.49
2022-08-03T19:04:46.065Z,29.50
2022-08-03T19:07:17.011Z,29.46
2022-08-03T19:09:58.335Z,29.44
2022-08-03T19:12:39.407Z,29.42
2022-08-03T19:15:12.819Z,29.40
2022-08-03T19:17:43.513Z,29.42
2022-08-03T19:20:22.523Z,29.42
2022-08-03T19:22:55.679Z,29.41
2022-08-03T19:25:34.335Z,29.41
2022-08-03T19:28:03.921Z,29.42
2022-08-03T19:30:39.123Z,29.40
2022-08-03T19:33:26.420Z,29.40
2022-08-03T19:35:57.456Z,29.40
2022-08-03T19:38:28.608Z,29.39
2022-08-03T19:40:59.803Z,29.38
2022-08-03T19:46:30.913Z,29.36
2022-08-03T19:49:15.081Z,29.36
2022-08-03T19:52:01.163Z,29.35
2022-08-03T19:54:53.883Z,29.35
2022-08-03T19:57:24.160Z,29.35
2022-08-03T19:59:52.513Z,29.33
2022-08-03T20:02:27.103Z,29.32
2022-08-03T20:04:58.023Z,29.31
2022-08-03T20:07:27.106Z,29.30
2022-08-03T20:09:56.750Z,29.32
2022-08-03T20:12:27.577Z,29.30
2022-08-03T20:14:58.498Z,29.27
2022-08-03T20:17:54.044Z,29.25
2022-08-03T20:20:13.481Z,29.25
2022-08-03T20:22:43.202Z,29.23
2022-08-03T20:25:13.310Z,29.23
2022-08-03T20:28:06.927Z,29.22
2022-08-03T20:30:34.446Z,29.22
2022-08-03T20:33:01.280Z,29.21
2022-08-03T20:35:28.716Z,29.20
2022-08-03T20:37:55.625Z,29.18
2022-08-03T20:40:27.355Z,29.19
2022-08-03T20:42:55.277Z,29.16
2022-08-03T20:46:00.971Z,29.16
2022-08-03T20:48:10.147Z,29.16
2022-08-03T20:50:38.552Z,29.14
2022-08-03T20:53:06.474Z,29.15
2022-08-03T20:55:47.982Z,29.14
2022-08-03T20:58:20.263Z,29.13
2022-08-03T21:00:51.575Z,29.13
2022-08-03T21:03:18.683Z,29.14
2022-08-03T21:05:51.008Z,29.08
2022-08-03T21:08:22.372Z,29.11
2022-08-03T21:10:49.384Z,29.09
2022-08-03T21:13:02.803Z,29.36
2022-08-03T21:13:27.098Z,29.08
2022-08-03T21:16:06.045Z,29.09
2022-08-03T21:18:45.724Z,29.06
2022-08-03T21:21:14.341Z,29.05
2022-08-03T21:23:48.648Z,29.07
2022-08-03T21:26:17.338Z,29.06
2022-08-03T21:28:45.749Z,29.06
2022-08-03T21:31:13.754Z,29.04
2022-08-03T21:33:40.891Z,29.04
2022-08-03T21:36:11.355Z,29.02
2022-08-03T21:38:39.779Z,29.02
2022-08-03T21:41:07.920Z,29.01
2022-08-03T21:43:34.829Z,29.00
2022-08-03T21:46:04.149Z,29.00
2022-08-03T21:48:41.604Z,29.01
2022-08-03T21:51:12.186Z,29.02
2022-08-03T21:54:04.157Z,29.00
2022-08-03T21:56:26.604Z,28.97
2022-08-03T21:59:01.818Z,28.99
2022-08-03T22:01:29.439Z,28.98
2022-08-03T22:04:05.459Z,28.97
2022-08-03T22:06:33.730Z,28.97
2022-08-03T22:09:00.418Z,28.96
2022-08-03T22:11:27.310Z,28.97
2022-08-03T22:13:53.790Z,28.95
2022-08-03T22:16:20.426Z,28.96
2022-08-03T22:18:46.923Z,28.94
2022-08-03T22:21:16.626Z,28.96
2022-08-03T22:23:56.821Z,28.94
2022-08-03T22:26:34.898Z,28.92
2022-08-03T22:29:07.144Z,28.95
2022-08-03T22:31:58.171Z,28.94
2022-08-03T22:34:26.272Z,28.92
2022-08-03T22:37:00.439Z,28.93
2022-08-03T22:39:28.495Z,28.95
2022-08-03T22:41:57.878Z,28.93
2022-08-03T22:44:25.602Z,28.92
2022-08-03T22:46:52.301Z,28.91
2022-08-03T22:49:19.526Z,28.91
2022-08-03T22:51:46.609Z,28.91
2022-08-03T22:54:13.683Z,28.91
2022-08-03T22:56:41.350Z,28.91
2022-08-03T22:59:39.069Z,28.91
2022-08-03T23:02:00.393Z,28.90
2022-08-03T23:04:31.824Z,28.90
2022-08-03T23:07:02.983Z,28.89
2022-08-03T23:09:31.138Z,28.90
2022-08-03T23:12:00.950Z,28.90
2022-08-03T23:14:30.288Z,28.88
2022-08-03T23:17:01.760Z,28.89
2022-08-03T23:19:30.200Z,28.87
2022-08-03T23:22:04.008Z,28.85
2022-08-03T23:24:36.205Z,28.85
2022-08-03T23:27:04.732Z,28.83
2022-08-03T23:29:33.603Z,28.84
2022-08-03T23:32:01.612Z,28.83
2022-08-03T23:34:49.045Z,28.84
2022-08-03T23:37:17.702Z,28.83
2022-08-03T23:39:46.852Z,28.84
2022-08-03T23:42:17.191Z,28.84
2022-08-03T23:44:44.913Z,28.85
2022-08-03T23:47:13.055Z,28.82
2022-08-03T23:49:39.719Z,28.82
2022-08-03T23:52:31.539Z,28.80
2022-08-03T23:55:16.644Z,28.81
2022-08-03T23:58:01.323Z,28.83
